sensor_id;sensor_type;location;lat;lon;timestamp;pressure;altitude;pressure_sealevel;temperature;humidity
47082;BME280;33066;49.296;14.470;2022-07-10T00:02:09;97337.72;;;21.13;41.81
47082;BME280;33066;49.296;14.470;2022-07-10T00:04:33;97338.02;;;20.80;41.89
47082;BME280;33066;49.296;14.470;2022-07-10T00:06:58;97338.18;;;20.96;41.93
47082;BME280;33066;49.296;14.470;2022-07-10T00:09:24;97334.15;;;20.89;42.01
47082;BME280;33066;49.296;14.470;2022-07-10T00:11:49;97331.62;;;20.87;42.08
47082;BME280;33066;49.296;14.470;2022-07-10T00:14:14;97335.21;;;21.09;42.21
47082;BME280;33066;49.296;14.470;2022-07-10T00:16:39;97336.63;;;20.89;42.12
47082;BME280;33066;49.296;14.470;2022-07-10T00:19:04;97338.02;;;20.88;42.13
47082;BME280;33066;49.296;14.470;2022-07-10T00:21:29;97336.35;;;20.90;42.07
47082;BME280;33066;49.296;14.470;2022-07-10T00:23:54;97331.40;;;20.92;41.99
47082;BME280;33066;49.296;14.470;2022-07-10T00:26:19;97327.99;;;20.95;41.87
47082;BME280;33066;49.296;14.470;2022-07-10T00:28:44;97328.79;;;20.94;41.83
47082;BME280;33066;49.296;14.470;2022-07-10T00:31:10;97323.62;;;20.94;41.80
47082;BME280;33066;49.296;14.470;2022-07-10T00:33:35;97320.40;;;20.93;41.75
47082;BME280;33066;49.296;14.470;2022-07-10T00:36:00;97316.56;;;20.93;41.66
47082;BME280;33066;49.296;14.470;2022-07-10T00:38:27;97313.87;;;20.90;41.68
47082;BME280;33066;49.296;14.470;2022-07-10T00:40:52;97312.88;;;19.64;41.51
47082;BME280;33066;49.296;14.470;2022-07-10T00:43:16;97313.18;;;21.20;40.84
47082;BME280;33066;49.296;14.470;2022-07-10T00:45:41;97308.65;;;21.17;41.16
47082;BME280;33066;49.296;14.470;2022-07-10T00:48:07;97313.80;;;21.01;41.35
47082;BME280;33066;49.296;14.470;2022-07-10T00:50:34;97308.95;;;20.88;41.41
47082;BME280;33066;49.296;14.470;2022-07-10T00:52:57;97313.50;;;20.78;41.59
47082;BME280;33066;49.296;14.470;2022-07-10T00:55:22;97309.45;;;20.72;41.71
47082;BME280;33066;49.296;14.470;2022-07-10T00:57:48;97304.63;;;20.72;41.70
47082;BME280;33066;49.296;14.470;2022-07-10T01:00:12;97304.03;;;20.70;41.73
47082;BME280;33066;49.296;14.470;2022-07-10T01:02:42;97304.20;;;20.72;41.72
47082;BME280;33066;49.296;14.470;2022-07-10T01:05:03;97302.58;;;20.74;41.72
47082;BME280;33066;49.296;14.470;2022-07-10T01:07:30;97300.47;;;20.78;41.73
47082;BME280;33066;49.296;14.470;2022-07-10T01:09:53;97297.10;;;20.79;41.71
47082;BME280;33066;49.296;14.470;2022-07-10T01:12:20;97296.56;;;20.78;41.71
47082;BME280;33066;49.296;14.470;2022-07-10T01:14:43;97295.73;;;20.76;41.75
47082;BME280;33066;49.296;14.470;2022-07-10T01:17:09;97295.63;;;20.53;41.85
47082;BME280;33066;49.296;14.470;2022-07-10T01:19:34;97295.47;;;20.85;41.74
47082;BME280;33066;49.296;14.470;2022-07-10T01:22:00;97298.79;;;20.62;41.84
47082;BME280;33066;49.296;14.470;2022-07-10T01:24:25;97302.33;;;20.89;41.79
47082;BME280;33066;49.296;14.470;2022-07-10T01:26:50;97293.54;;;20.98;41.58
47082;BME280;33066;49.296;14.470;2022-07-10T01:29:15;97294.59;;;21.05;41.74
47082;BME280;33066;49.296;14.470;2022-07-10T01:31:40;97290.44;;;21.09;41.66
47082;BME280;33066;49.296;14.470;2022-07-10T01:34:08;97288.77;;;21.07;41.69
47082;BME280;33066;49.296;14.470;2022-07-10T01:36:31;97285.57;;;21.14;41.77
47082;BME280;33066;49.296;14.470;2022-07-10T01:38:58;97283.76;;;20.95;41.77
47082;BME280;33066;49.296;14.470;2022-07-10T01:41:22;97284.09;;;21.18;41.87
47082;BME280;33066;49.296;14.470;2022-07-10T01:43:47;97284.86;;;20.69;41.71
47082;BME280;33066;49.296;14.470;2022-07-10T01:46:12;97279.48;;;21.15;41.77
47082;BME280;33066;49.296;14.470;2022-07-10T01:48:38;97276.24;;;21.18;41.55
47082;BME280;33066;49.296;14.470;2022-07-10T01:51:02;97275.16;;;20.95;41.56
47082;BME280;33066;49.296;14.470;2022-07-10T01:53:27;97278.67;;;21.17;41.76
47082;BME280;33066;49.296;14.470;2022-07-10T01:55:53;97279.26;;;21.21;41.81
47082;BME280;33066;49.296;14.470;2022-07-10T01:58:18;97279.36;;;20.98;41.81
47082;BME280;33066;49.296;14.470;2022-07-10T02:00:44;97277.68;;;21.18;41.80
47082;BME280;33066;49.296;14.470;2022-07-10T02:03:09;97273.27;;;21.17;41.79
47082;BME280;33066;49.296;14.470;2022-07-10T02:05:34;97271.71;;;20.95;41.81
47082;BME280;33066;49.296;14.470;2022-07-10T02:07:59;97274.13;;;20.98;41.78
47082;BME280;33066;49.296;14.470;2022-07-10T02:10:24;97274.23;;;21.22;41.82
47082;BME280;33066;49.296;14.470;2022-07-10T02:12:50;97273.36;;;20.94;41.70
47082;BME280;33066;49.296;14.470;2022-07-10T02:15:15;97268.79;;;20.94;41.66
47082;BME280;33066;49.296;14.470;2022-07-10T02:17:40;97262.69;;;21.24;41.59
47082;BME280;33066;49.296;14.470;2022-07-10T02:20:07;97261.67;;;20.99;41.47
47082;BME280;33066;49.296;14.470;2022-07-10T02:22:30;97261.61;;;21.26;41.21
47082;BME280;33066;49.296;14.470;2022-07-10T02:24:55;97260.43;;;20.87;41.35
47082;BME280;33066;49.296;14.470;2022-07-10T02:27:21;97260.23;;;20.91;41.38
47082;BME280;33066;49.296;14.470;2022-07-10T02:29:46;97258.72;;;20.89;41.36
47082;BME280;33066;49.296;14.470;2022-07-10T02:32:11;97258.26;;;21.15;41.43
47082;BME280;33066;49.296;14.470;2022-07-10T02:34:36;97259.81;;;21.18;41.53
47082;BME280;33066;49.296;14.470;2022-07-10T02:37:01;97259.15;;;21.21;41.43
47082;BME280;33066;49.296;14.470;2022-07-10T02:39:26;97261.72;;;20.69;41.53
47082;BME280;33066;49.296;14.470;2022-07-10T02:41:51;97262.62;;;21.19;41.54
47082;BME280;33066;49.296;14.470;2022-07-10T02:44:17;97259.43;;;21.19;41.60
47082;BME280;33066;49.296;14.470;2022-07-10T02:46:42;97261.22;;;21.25;41.54
47082;BME280;33066;49.296;14.470;2022-07-10T02:49:07;97263.25;;;20.98;41.60
47082;BME280;33066;49.296;14.470;2022-07-10T02:51:32;97263.46;;;21.27;41.60
47082;BME280;33066;49.296;14.470;2022-07-10T02:53:58;97264.89;;;20.82;41.59
47082;BME280;33066;49.296;14.470;2022-07-10T02:56:23;97265.67;;;21.05;41.54
47082;BME280;33066;49.296;14.470;2022-07-10T02:58:48;97272.23;;;21.03;41.70
47082;BME280;33066;49.296;14.470;2022-07-10T03:01:13;97272.60;;;21.23;41.66
47082;BME280;33066;49.296;14.470;2022-07-10T03:03:38;97273.70;;;20.99;41.81
47082;BME280;33066;49.296;14.470;2022-07-10T03:06:03;97275.44;;;21.21;41.66
47082;BME280;33066;49.296;14.470;2022-07-10T03:08:29;97274.78;;;20.87;41.79
47082;BME280;33066;49.296;14.470;2022-07-10T03:13:01;97274.79;;;21.04;41.68
47082;BME280;33066;49.296;14.470;2022-07-10T03:15:25;97273.52;;;21.27;41.81
47082;BME280;33066;49.296;14.470;2022-07-10T03:17:51;97276.91;;;20.98;41.94
47082;BME280;33066;49.296;14.470;2022-07-10T03:20:16;97275.67;;;21.23;41.87
47082;BME280;33066;49.296;14.470;2022-07-10T03:22:41;97276.32;;;21.16;42.15
47082;BME280;33066;49.296;14.470;2022-07-10T03:25:07;97275.16;;;21.07;42.16
47082;BME280;33066;49.296;14.470;2022-07-10T03:27:31;97274.81;;;20.75;42.09
47082;BME280;33066;49.296;14.470;2022-07-10T03:29:58;97270.92;;;20.91;41.99
47082;BME280;33066;49.296;14.470;2022-07-10T03:32:23;97274.45;;;20.94;42.20
47082;BME280;33066;49.296;14.470;2022-07-10T03:34:47;97272.67;;;20.77;42.34
47082;BME280;33066;49.296;14.470;2022-07-10T03:37:13;97271.95;;;20.82;42.47
47082;BME280;33066;49.296;14.470;2022-07-10T03:39:37;97270.99;;;20.72;42.30
47082;BME280;33066;49.296;14.470;2022-07-10T03:42:05;97275.56;;;20.55;42.57
47082;BME280;33066;49.296;14.470;2022-07-10T03:44:27;97276.29;;;20.50;42.52
47082;BME280;33066;49.296;14.470;2022-07-10T03:46:53;97273.51;;;20.52;42.56
47082;BME280;33066;49.296;14.470;2022-07-10T03:49:18;97272.48;;;20.60;42.54
47082;BME280;33066;49.296;14.470;2022-07-10T03:51:43;97272.00;;;20.57;42.29
47082;BME280;33066;49.296;14.470;2022-07-10T03:54:08;97268.78;;;20.37;42.42
47082;BME280;33066;49.296;14.470;2022-07-10T03:56:33;97273.53;;;20.22;42.67
47082;BME280;33066;49.296;14.470;2022-07-10T03:58:58;97273.92;;;20.18;42.78
47082;BME280;33066;49.296;14.470;2022-07-10T04:01:23;97271.05;;;20.20;43.04
47082;BME280;33066;49.296;14.470;2022-07-10T04:03:48;97268.71;;;20.40;42.82
47082;BME280;33066;49.296;14.470;2022-07-10T04:06:14;97269.73;;;20.52;42.72
47082;BME280;33066;49.296;14.470;2022-07-10T04:08:39;97268.90;;;20.55;42.31
47082;BME280;33066;49.296;14.470;2022-07-10T04:11:04;97276.60;;;20.65;42.49
47082;BME280;33066;49.296;14.470;2022-07-10T04:13:29;97283.79;;;20.67;42.28
47082;BME280;33066;49.296;14.470;2022-07-10T04:15:54;97287.33;;;20.59;41.79
47082;BME280;33066;49.296;14.470;2022-07-10T04:18:19;97288.09;;;20.62;42.11
47082;BME280;33066;49.296;14.470;2022-07-10T04:20:45;97285.83;;;20.36;42.13
47082;BME280;33066;49.296;14.470;2022-07-10T04:23:11;97286.26;;;20.14;42.31
47082;BME280;33066;49.296;14.470;2022-07-10T04:25:36;97285.99;;;20.35;42.18
47082;BME280;33066;49.296;14.470;2022-07-10T04:28:01;97287.00;;;20.32;42.19
47082;BME280;33066;49.296;14.470;2022-07-10T04:30:26;97281.80;;;20.24;42.09
47082;BME280;33066;49.296;14.470;2022-07-10T04:32:52;97278.64;;;20.37;41.99
47082;BME280;33066;49.296;14.470;2022-07-10T04:35:16;97277.01;;;20.30;42.03
47082;BME280;33066;49.296;14.470;2022-07-10T04:37:41;97275.91;;;20.33;41.96
47082;BME280;33066;49.296;14.470;2022-07-10T04:40:09;97280.85;;;20.39;41.99
47082;BME280;33066;49.296;14.470;2022-07-10T04:42:32;97283.96;;;20.37;41.69
47082;BME280;33066;49.296;14.470;2022-07-10T04:44:57;97281.99;;;20.32;41.96
47082;BME280;33066;49.296;14.470;2022-07-10T04:47:23;97285.12;;;20.42;41.63
47082;BME280;33066;49.296;14.470;2022-07-10T04:49:48;97290.56;;;20.47;41.58
47082;BME280;33066;49.296;14.470;2022-07-10T04:52:13;97289.69;;;20.50;41.38
47082;BME280;33066;49.296;14.470;2022-07-10T04:54:39;97292.57;;;20.42;41.50
47082;BME280;33066;49.296;14.470;2022-07-10T04:57:04;97294.32;;;20.47;41.47
47082;BME280;33066;49.296;14.470;2022-07-10T04:59:31;97293.46;;;20.44;41.36
47082;BME280;33066;49.296;14.470;2022-07-10T05:01:54;97297.25;;;20.73;41.49
47082;BME280;33066;49.296;14.470;2022-07-10T05:04:19;97297.85;;;20.51;41.40
47082;BME280;33066;49.296;14.470;2022-07-10T05:06:46;97296.60;;;20.26;41.26
47082;BME280;33066;49.296;14.470;2022-07-10T05:09:11;97293.88;;;20.77;41.06
47082;BME280;33066;49.296;14.470;2022-07-10T05:11:36;97294.42;;;20.23;41.43
47082;BME280;33066;49.296;14.470;2022-07-10T05:14:00;97294.31;;;20.23;41.20
47082;BME280;33066;49.296;14.470;2022-07-10T05:16:25;97296.12;;;20.20;41.24
47082;BME280;33066;49.296;14.470;2022-07-10T05:18:50;97294.44;;;20.19;41.26
47082;BME280;33066;49.296;14.470;2022-07-10T05:21:15;97298.86;;;20.16;41.14
47082;BME280;33066;49.296;14.470;2022-07-10T05:23:42;97299.49;;;20.44;41.35
47082;BME280;33066;49.296;14.470;2022-07-10T05:26:06;97298.10;;;20.23;41.01
47082;BME280;33066;49.296;14.470;2022-07-10T05:28:31;97303.26;;;20.40;41.17
47082;BME280;33066;49.296;14.470;2022-07-10T05:30:56;97304.32;;;20.35;41.14
47082;BME280;33066;49.296;14.470;2022-07-10T05:33:22;97309.04;;;20.31;41.22
47082;BME280;33066;49.296;14.470;2022-07-10T05:35:46;97310.54;;;20.15;41.30
47082;BME280;33066;49.296;14.470;2022-07-10T05:38:11;97314.32;;;20.19;41.32
47082;BME280;33066;49.296;14.470;2022-07-10T05:40:38;97313.76;;;20.16;41.29
47082;BME280;33066;49.296;14.470;2022-07-10T05:43:01;97314.01;;;20.01;39.99
47082;BME280;33066;49.296;14.470;2022-07-10T05:45:27;97311.82;;;20.33;38.93
47082;BME280;33066;49.296;14.470;2022-07-10T05:47:54;97311.74;;;20.43;38.81
47082;BME280;33066;49.296;14.470;2022-07-10T05:50:19;97312.81;;;20.36;38.40
47082;BME280;33066;49.296;14.470;2022-07-10T05:52:43;97315.82;;;20.33;38.38
47082;BME280;33066;49.296;14.470;2022-07-10T05:55:08;97316.90;;;20.14;38.16
47082;BME280;33066;49.296;14.470;2022-07-10T05:57:33;97316.69;;;20.43;38.19
47082;BME280;33066;49.296;14.470;2022-07-10T05:59:58;97316.80;;;20.51;37.80
47082;BME280;33066;49.296;14.470;2022-07-10T06:02:23;97313.35;;;20.31;37.48
47082;BME280;33066;49.296;14.470;2022-07-10T06:04:48;97314.03;;;20.39;37.33
47082;BME280;33066;49.296;14.470;2022-07-10T06:07:15;97316.71;;;20.31;36.71
47082;BME280;33066;49.296;14.470;2022-07-10T06:09:38;97319.19;;;20.26;37.14
47082;BME280;33066;49.296;14.470;2022-07-10T06:12:06;97323.78;;;20.23;36.97
47082;BME280;33066;49.296;14.470;2022-07-10T06:14:29;97326.14;;;20.12;37.51
47082;BME280;33066;49.296;14.470;2022-07-10T06:16:54;97328.76;;;20.29;36.93
47082;BME280;33066;49.296;14.470;2022-07-10T06:19:19;97331.76;;;20.02;37.09
47082;BME280;33066;49.296;14.470;2022-07-10T06:21:44;97332.48;;;20.25;37.69
47082;BME280;33066;49.296;14.470;2022-07-10T06:24:09;97333.43;;;19.99;37.17
47082;BME280;33066;49.296;14.470;2022-07-10T06:26:35;97336.26;;;20.14;37.43
47082;BME280;33066;49.296;14.470;2022-07-10T06:29:01;97338.87;;;20.52;37.25
47082;BME280;33066;49.296;14.470;2022-07-10T06:31:25;97334.87;;;20.24;37.21
47082;BME280;33066;49.296;14.470;2022-07-10T06:33:51;97333.06;;;20.34;37.47
47082;BME280;33066;49.296;14.470;2022-07-10T06:36:15;97329.44;;;20.70;37.55
47082;BME280;33066;49.296;14.470;2022-07-10T06:38:40;97330.71;;;20.55;37.71
47082;BME280;33066;49.296;14.470;2022-07-10T06:41:05;97332.41;;;20.56;37.46
47082;BME280;33066;49.296;14.470;2022-07-10T06:43:30;97334.07;;;20.52;37.31
47082;BME280;33066;49.296;14.470;2022-07-10T06:45:56;97335.57;;;20.80;37.30
47082;BME280;33066;49.296;14.470;2022-07-10T06:48:21;97338.26;;;20.63;37.31
47082;BME280;33066;49.296;14.470;2022-07-10T06:50:47;97339.63;;;20.76;36.98
47082;BME280;33066;49.296;14.470;2022-07-10T06:53:11;97340.27;;;20.91;36.99
47082;BME280;33066;49.296;14.470;2022-07-10T06:55:38;97341.64;;;20.90;36.87
47082;BME280;33066;49.296;14.470;2022-07-10T06:58:01;97340.45;;;20.87;36.93
47082;BME280;33066;49.296;14.470;2022-07-10T07:00:26;97337.85;;;21.10;36.94
47082;BME280;33066;49.296;14.470;2022-07-10T07:02:51;97340.04;;;21.21;36.45
47082;BME280;33066;49.296;14.470;2022-07-10T07:05:17;97337.14;;;21.52;36.56
47082;BME280;33066;49.296;14.470;2022-07-10T07:07:42;97337.47;;;21.46;36.34
47082;BME280;33066;49.296;14.470;2022-07-10T07:10:08;97339.01;;;21.47;35.89
47082;BME280;33066;49.296;14.470;2022-07-10T07:12:32;97339.56;;;21.64;36.08
47082;BME280;33066;49.296;14.470;2022-07-10T07:14:57;97338.98;;;21.64;35.80
47082;BME280;33066;49.296;14.470;2022-07-10T07:17:22;97336.83;;;21.56;35.64
47082;BME280;33066;49.296;14.470;2022-07-10T07:19:47;97336.31;;;21.52;34.74
47082;BME280;33066;49.296;14.470;2022-07-10T07:22:12;97338.67;;;21.26;34.31
47082;BME280;33066;49.296;14.470;2022-07-10T07:24:37;97346.50;;;21.03;34.77
47082;BME280;33066;49.296;14.470;2022-07-10T07:27:03;97345.38;;;21.12;34.92
47082;BME280;33066;49.296;14.470;2022-07-10T07:29:29;97350.90;;;20.95;34.88
47082;BME280;33066;49.296;14.470;2022-07-10T07:31:53;97347.16;;;20.89;35.59
47082;BME280;33066;49.296;14.470;2022-07-10T07:34:18;97345.01;;;20.75;34.92
47082;BME280;33066;49.296;14.470;2022-07-10T07:36:43;97345.27;;;20.76;35.42
47082;BME280;33066;49.296;14.470;2022-07-10T07:39:08;97344.87;;;20.87;35.32
47082;BME280;33066;49.296;14.470;2022-07-10T07:41:33;97349.95;;;20.86;35.14
47082;BME280;33066;49.296;14.470;2022-07-10T07:43:58;97351.63;;;20.80;34.78
47082;BME280;33066;49.296;14.470;2022-07-10T07:46:23;97349.30;;;20.79;34.27
47082;BME280;33066;49.296;14.470;2022-07-10T07:48:49;97353.78;;;20.91;33.46
47082;BME280;33066;49.296;14.470;2022-07-10T07:51:14;97353.49;;;20.95;33.34
47082;BME280;33066;49.296;14.470;2022-07-10T07:53:40;97352.76;;;21.14;33.76
47082;BME280;33066;49.296;14.470;2022-07-10T07:56:05;97352.03;;;21.40;34.15
47082;BME280;33066;49.296;14.470;2022-07-10T07:58:30;97348.74;;;21.27;33.80
47082;BME280;33066;49.296;14.470;2022-07-10T08:00:55;97347.64;;;21.78;33.86
47082;BME280;33066;49.296;14.470;2022-07-10T08:03:20;97346.52;;;21.51;33.74
47082;BME280;33066;49.296;14.470;2022-07-10T08:05:45;97347.44;;;21.73;34.24
47082;BME280;33066;49.296;14.470;2022-07-10T08:08:12;97344.13;;;21.57;33.50
47082;BME280;33066;49.296;14.470;2022-07-10T08:10:36;97346.02;;;21.60;33.98
47082;BME280;33066;49.296;14.470;2022-07-10T08:13:01;97334.58;;;21.93;33.51
47082;BME280;33066;49.296;14.470;2022-07-10T08:15:25;97333.27;;;21.59;33.38
47082;BME280;33066;49.296;14.470;2022-07-10T08:17:52;97332.27;;;21.72;32.81
47082;BME280;33066;49.296;14.470;2022-07-10T08:20:16;97333.17;;;21.56;32.88
47082;BME280;33066;49.296;14.470;2022-07-10T08:22:41;97332.13;;;21.87;33.05
47082;BME280;33066;49.296;14.470;2022-07-10T08:25:06;97332.77;;;21.90;32.56
47082;BME280;33066;49.296;14.470;2022-07-10T08:27:31;97334.14;;;21.69;32.29
47082;BME280;33066;49.296;14.470;2022-07-10T08:29:56;97333.21;;;21.70;32.70
47082;BME280;33066;49.296;14.470;2022-07-10T08:32:21;97337.91;;;21.56;30.90
47082;BME280;33066;49.296;14.470;2022-07-10T08:34:46;97327.53;;;21.67;30.14
47082;BME280;33066;49.296;14.470;2022-07-10T08:37:11;97320.92;;;21.59;30.90
47082;BME280;33066;49.296;14.470;2022-07-10T08:39:36;97330.61;;;21.09;30.88
47082;BME280;33066;49.296;14.470;2022-07-10T08:42:04;97322.15;;;21.47;30.70
47082;BME280;33066;49.296;14.470;2022-07-10T08:44:28;97321.97;;;21.52;31.20
47082;BME280;33066;49.296;14.470;2022-07-10T08:46:52;97317.86;;;21.31;30.56
47082;BME280;33066;49.296;14.470;2022-07-10T08:49:17;97312.87;;;21.76;30.15
47082;BME280;33066;49.296;14.470;2022-07-10T08:51:48;97315.51;;;21.90;30.49
47082;BME280;33066;49.296;14.470;2022-07-10T08:54:08;97322.36;;;21.63;29.77
47082;BME280;33066;49.296;14.470;2022-07-10T08:56:33;97324.34;;;21.69;29.74
47082;BME280;33066;49.296;14.470;2022-07-10T08:58:58;97321.99;;;21.97;30.20
47082;BME280;33066;49.296;14.470;2022-07-10T09:01:23;97326.20;;;21.59;30.57
47082;BME280;33066;49.296;14.470;2022-07-10T09:03:48;97323.69;;;21.68;30.62
47082;BME280;33066;49.296;14.470;2022-07-10T09:06:13;97324.54;;;21.58;30.64
47082;BME280;33066;49.296;14.470;2022-07-10T09:08:38;97329.77;;;21.36;30.58
47082;BME280;33066;49.296;14.470;2022-07-10T09:11:13;97329.98;;;21.26;29.99
47082;BME280;33066;49.296;14.470;2022-07-10T09:13:28;97336.31;;;21.46;29.87
47082;BME280;33066;49.296;14.470;2022-07-10T09:15:54;97331.18;;;21.42;30.00
47082;BME280;33066;49.296;14.470;2022-07-10T09:18:21;97331.63;;;21.56;29.79
47082;BME280;33066;49.296;14.470;2022-07-10T09:20:43;97331.88;;;21.93;29.65
47082;BME280;33066;49.296;14.470;2022-07-10T09:23:15;97331.79;;;21.80;29.43
47082;BME280;33066;49.296;14.470;2022-07-10T09:25:34;97327.09;;;21.94;30.10
47082;BME280;33066;49.296;14.470;2022-07-10T09:27:59;97325.66;;;22.36;28.99
47082;BME280;33066;49.296;14.470;2022-07-10T09:30:32;97321.52;;;22.84;28.85
47082;BME280;33066;49.296;14.470;2022-07-10T09:32:49;97319.52;;;22.47;29.42
47082;BME280;33066;49.296;14.470;2022-07-10T09:35:14;97322.90;;;22.41;28.65
47082;BME280;33066;49.296;14.470;2022-07-10T09:37:40;97323.64;;;22.61;28.05
47082;BME280;33066;49.296;14.470;2022-07-10T09:40:06;97322.03;;;22.53;28.28
47082;BME280;33066;49.296;14.470;2022-07-10T09:42:31;97320.72;;;22.70;28.21
47082;BME280;33066;49.296;14.470;2022-07-10T09:47:22;97337.20;;;22.39;28.49
47082;BME280;33066;49.296;14.470;2022-07-10T09:49:44;97327.76;;;22.22;28.01
47082;BME280;33066;49.296;14.470;2022-07-10T09:52:10;97337.03;;;21.90;27.84
47082;BME280;33066;49.296;14.470;2022-07-10T09:54:36;97334.55;;;21.77;28.76
47082;BME280;33066;49.296;14.470;2022-07-10T09:57:02;97334.68;;;21.92;28.82
47082;BME280;33066;49.296;14.470;2022-07-10T09:59:25;97338.55;;;21.71;28.84
47082;BME280;33066;49.296;14.470;2022-07-10T10:01:51;97334.34;;;21.51;28.65
47082;BME280;33066;49.296;14.470;2022-07-10T10:04:16;97331.63;;;21.62;28.63
47082;BME280;33066;49.296;14.470;2022-07-10T10:06:41;97332.38;;;21.92;27.86
47082;BME280;33066;49.296;14.470;2022-07-10T10:09:08;97334.52;;;21.93;27.98
47082;BME280;33066;49.296;14.470;2022-07-10T10:11:32;97330.88;;;22.29;28.34
47082;BME280;33066;49.296;14.470;2022-07-10T10:13:56;97328.96;;;21.93;27.87
47082;BME280;33066;49.296;14.470;2022-07-10T10:16:22;97328.36;;;22.66;27.42
47082;BME280;33066;49.296;14.470;2022-07-10T10:18:46;97327.20;;;22.52;27.54
47082;BME280;33066;49.296;14.470;2022-07-10T10:21:12;97328.42;;;22.71;27.76
47082;BME280;33066;49.296;14.470;2022-07-10T10:23:36;97329.05;;;22.61;27.32
47082;BME280;33066;49.296;14.470;2022-07-10T10:26:01;97329.52;;;22.52;27.37
47082;BME280;33066;49.296;14.470;2022-07-10T10:28:26;97325.68;;;22.51;27.99
47082;BME280;33066;49.296;14.470;2022-07-10T10:30:53;97323.24;;;22.67;28.30
47082;BME280;33066;49.296;14.470;2022-07-10T10:35:42;97319.04;;;22.01;27.27
47082;BME280;33066;49.296;14.470;2022-07-10T10:38:06;97316.82;;;22.43;27.10
47082;BME280;33066;49.296;14.470;2022-07-10T10:40:33;97318.68;;;22.59;28.05
47082;BME280;33066;49.296;14.470;2022-07-10T10:42:58;97315.96;;;22.58;27.28
47082;BME280;33066;49.296;14.470;2022-07-10T10:45:24;97318.00;;;23.29;26.98
47082;BME280;33066;49.296;14.470;2022-07-10T10:47:57;97314.80;;;23.04;26.74
47082;BME280;33066;49.296;14.470;2022-07-10T10:50:18;97311.50;;;22.99;26.35
47082;BME280;33066;49.296;14.470;2022-07-10T10:52:37;97308.44;;;23.03;26.35
47082;BME280;33066;49.296;14.470;2022-07-10T10:55:05;97313.04;;;22.96;25.93
47082;BME280;33066;49.296;14.470;2022-07-10T10:57:38;97315.66;;;23.15;25.84
47082;BME280;33066;49.296;14.470;2022-07-10T10:59:53;97314.13;;;22.58;25.95
47082;BME280;33066;49.296;14.470;2022-07-10T11:02:21;97313.78;;;22.39;25.76
47082;BME280;33066;49.296;14.470;2022-07-10T11:04:42;97315.76;;;22.49;26.39
47082;BME280;33066;49.296;14.470;2022-07-10T11:07:07;97323.40;;;22.53;26.74
47082;BME280;33066;49.296;14.470;2022-07-10T11:09:33;97318.62;;;22.65;26.23
47082;BME280;33066;49.296;14.470;2022-07-10T11:11:59;97315.54;;;22.87;25.83
47082;BME280;33066;49.296;14.470;2022-07-10T11:14:23;97310.59;;;23.01;26.36
47082;BME280;33066;49.296;14.470;2022-07-10T11:16:48;97313.43;;;22.88;26.14
47082;BME280;33066;49.296;14.470;2022-07-10T11:19:13;97307.06;;;23.04;25.87
47082;BME280;33066;49.296;14.470;2022-07-10T11:21:46;97307.31;;;23.29;26.35
47082;BME280;33066;49.296;14.470;2022-07-10T11:24:09;97301.28;;;23.18;25.85
47082;BME280;33066;49.296;14.470;2022-07-10T11:26:35;97299.07;;;23.49;25.49
47082;BME280;33066;49.296;14.470;2022-07-10T11:28:54;97301.79;;;23.28;25.56
47082;BME280;33066;49.296;14.470;2022-07-10T11:31:19;97297.68;;;23.68;25.87
47082;BME280;33066;49.296;14.470;2022-07-10T11:33:45;97306.63;;;23.65;25.43
47082;BME280;33066;49.296;14.470;2022-07-10T11:36:10;97306.94;;;23.77;25.16
47082;BME280;33066;49.296;14.470;2022-07-10T11:38:33;97310.39;;;23.39;25.07
47082;BME280;33066;49.296;14.470;2022-07-10T11:40:59;97309.98;;;23.52;24.93
47082;BME280;33066;49.296;14.470;2022-07-10T11:43:24;97298.23;;;23.03;24.91
47082;BME280;33066;49.296;14.470;2022-07-10T11:45:54;97307.36;;;22.98;24.85
47082;BME280;33066;49.296;14.470;2022-07-10T11:48:20;97308.34;;;22.74;25.11
47082;BME280;33066;49.296;14.470;2022-07-10T11:50:39;97299.13;;;22.62;25.79
47082;BME280;33066;49.296;14.470;2022-07-10T11:53:05;97301.41;;;23.09;25.89
47082;BME280;33066;49.296;14.470;2022-07-10T11:55:29;97297.01;;;23.57;25.23
47082;BME280;33066;49.296;14.470;2022-07-10T11:57:55;97298.76;;;23.27;25.58
47082;BME280;33066;49.296;14.470;2022-07-10T12:00:22;97302.09;;;23.55;25.58
47082;BME280;33066;49.296;14.470;2022-07-10T12:02:45;97305.70;;;23.25;25.59
47082;BME280;33066;49.296;14.470;2022-07-10T12:07:36;97301.53;;;23.24;26.20
47082;BME280;33066;49.296;14.470;2022-07-10T12:10:00;97306.96;;;23.03;26.08
47082;BME280;33066;49.296;14.470;2022-07-10T12:12:25;97318.68;;;23.20;26.24
47082;BME280;33066;49.296;14.470;2022-07-10T12:14:50;97317.93;;;22.89;26.48
47082;BME280;33066;49.296;14.470;2022-07-10T12:17:16;97316.27;;;23.08;26.35
47082;BME280;33066;49.296;14.470;2022-07-10T12:19:40;97309.94;;;23.19;26.62
47082;BME280;33066;49.296;14.470;2022-07-10T12:22:06;97323.13;;;23.09;26.14
47082;BME280;33066;49.296;14.470;2022-07-10T12:24:31;97321.99;;;23.16;26.52
47082;BME280;33066;49.296;14.470;2022-07-10T12:26:56;97320.95;;;23.12;26.07
47082;BME280;33066;49.296;14.470;2022-07-10T12:29:22;97320.74;;;23.61;26.20
47082;BME280;33066;49.296;14.470;2022-07-10T12:31:50;97318.76;;;23.76;26.04
47082;BME280;33066;49.296;14.470;2022-07-10T12:34:11;97316.95;;;23.57;24.69
47082;BME280;33066;49.296;14.470;2022-07-10T12:36:42;97326.30;;;24.89;24.36
47082;BME280;33066;49.296;14.470;2022-07-10T12:39:01;97328.49;;;25.50;23.87
47082;BME280;33066;49.296;14.470;2022-07-10T12:41:26;97325.80;;;25.00;23.67
47082;BME280;33066;49.296;14.470;2022-07-10T12:43:52;97328.61;;;24.92;24.04
47082;BME280;33066;49.296;14.470;2022-07-10T12:46:17;97331.76;;;24.76;24.55
47082;BME280;33066;49.296;14.470;2022-07-10T12:48:42;97326.42;;;24.41;24.81